sensor_id;sensor_type;location;lat;lon;timestamp;pressure;altitude;pressure_sealevel;temperature;humidity
9523;BME280;63165;43.016;25.784;2023-03-18T00:01:49;100785.69;;;1.62;76.86
9523;BME280;63165;43.016;25.784;2023-03-18T00:04:16;100730.66;;;1.34;76.77
9523;BME280;63165;43.016;25.784;2023-03-18T00:06:43;100781.31;;;1.60;76.80
9523;BME280;63165;43.016;25.784;2023-03-18T00:09:11;100778.81;;;1.63;77.08
9523;BME280;63165;43.016;25.784;2023-03-18T00:11:38;100762.88;;;1.47;76.74
9523;BME280;63165;43.016;25.784;2023-03-18T00:14:08;100761.41;;;1.55;76.76
9523;BME280;63165;43.016;25.784;2023-03-18T00:16:35;100760.56;;;1.57;76.73
9523;BME280;63165;43.016;25.784;2023-03-18T00:19:03;100766.28;;;1.46;76.79
9523;BME280;63165;43.016;25.784;2023-03-18T00:21:31;100772.72;;;1.61;77.08
9523;BME280;63165;43.016;25.784;2023-03-18T00:23:59;100761.44;;;1.57;76.67
9523;BME280;63165;43.016;25.784;2023-03-18T00:26:27;100790.34;;;1.47;76.84
9523;BME280;63165;43.016;25.784;2023-03-18T00:28:55;100722.69;;;1.00;76.67
9523;BME280;63165;43.016;25.784;2023-03-18T00:31:25;100676.19;;;0.96;76.64
9523;BME280;63165;43.016;25.784;2023-03-18T00:33:53;100761.13;;;1.46;76.68
9523;BME280;63165;43.016;25.784;2023-03-18T00:36:20;100778.38;;;1.49;76.99
9523;BME280;63165;43.016;25.784;2023-03-18T00:38:51;100721.50;;;1.17;77.30
9523;BME280;63165;43.016;25.784;2023-03-18T00:41:23;100764.69;;;1.50;77.26
9523;BME280;63165;43.016;25.784;2023-03-18T00:43:50;100748.38;;;1.51;76.96
9523;BME280;63165;43.016;25.784;2023-03-18T00:46:22;100722.91;;;1.34;77.02
9523;BME280;63165;43.016;25.784;2023-03-18T00:48:52;100699.00;;;0.84;76.69
9523;BME280;63165;43.016;25.784;2023-03-18T00:51:21;100772.88;;;1.38;77.39
9523;BME280;63165;43.016;25.784;2023-03-18T00:53:51;100752.81;;;1.28;76.91
9523;BME280;63165;43.016;25.784;2023-03-18T00:56:24;100679.63;;;0.97;77.14
9523;BME280;63165;43.016;25.784;2023-03-18T00:58:52;100741.81;;;1.33;77.00
9523;BME280;63165;43.016;25.784;2023-03-18T01:01:20;100758.88;;;1.30;76.84
9523;BME280;63165;43.016;25.784;2023-03-18T01:03:47;100722.34;;;1.16;77.30
9523;BME280;63165;43.016;25.784;2023-03-18T01:06:18;100734.81;;;1.29;76.95
9523;BME280;63165;43.016;25.784;2023-03-18T01:08:48;100747.72;;;1.31;77.17
9523;BME280;63165;43.016;25.784;2023-03-18T01:11:15;100743.16;;;1.22;76.81
9523;BME280;63165;43.016;25.784;2023-03-18T01:13:43;100707.66;;;0.86;76.44
9523;BME280;63165;43.016;25.784;2023-03-18T01:16:11;100730.59;;;1.06;76.58
9523;BME280;63165;43.016;25.784;2023-03-18T01:18:39;100741.50;;;1.24;76.68
9523;BME280;63165;43.016;25.784;2023-03-18T01:21:07;100695.31;;;0.77;76.29
9523;BME280;63165;43.016;25.784;2023-03-18T01:23:37;100733.66;;;0.94;76.10
9523;BME280;63165;43.016;25.784;2023-03-18T01:26:05;100755.25;;;0.98;76.38
9523;BME280;63165;43.016;25.784;2023-03-18T01:28:32;100718.66;;;0.82;76.96
9523;BME280;63165;43.016;25.784;2023-03-18T01:31:00;100723.19;;;0.89;76.76
9523;BME280;63165;43.016;25.784;2023-03-18T01:33:27;100736.06;;;0.89;77.49
9523;BME280;63165;43.016;25.784;2023-03-18T01:35:56;100711.50;;;0.73;77.61
9523;BME280;63165;43.016;25.784;2023-03-18T01:38:25;100744.53;;;0.85;78.03
9523;BME280;63165;43.016;25.784;2023-03-18T01:40:56;100729.00;;;0.84;77.68
9523;BME280;63165;43.016;25.784;2023-03-18T01:43:26;100656.06;;;0.33;77.46
9523;BME280;63165;43.016;25.784;2023-03-18T01:45:55;100686.13;;;0.34;78.11
9523;BME280;63165;43.016;25.784;2023-03-18T01:48:26;100666.84;;;0.47;78.09
9523;BME280;63165;43.016;25.784;2023-03-18T01:50:56;100730.41;;;0.74;77.88
9523;BME280;63165;43.016;25.784;2023-03-18T01:53:28;100733.91;;;0.76;78.55
9523;BME280;63165;43.016;25.784;2023-03-18T01:56:01;100678.94;;;0.50;78.72
9523;BME280;63165;43.016;25.784;2023-03-18T01:58:33;100693.06;;;0.61;78.41
9523;BME280;63165;43.016;25.784;2023-03-18T02:01:05;100724.31;;;0.72;77.99
9523;BME280;63165;43.016;25.784;2023-03-18T02:03:34;100724.38;;;0.73;78.30
9523;BME280;63165;43.016;25.784;2023-03-18T02:06:02;100673.59;;;0.44;77.73
9523;BME280;63165;43.016;25.784;2023-03-18T02:08:29;100729.38;;;0.69;77.85
9523;BME280;63165;43.016;25.784;2023-03-18T02:10:57;100729.28;;;0.66;78.19
9523;BME280;63165;43.016;25.784;2023-03-18T02:13:25;100723.41;;;0.70;78.61
9523;BME280;63165;43.016;25.784;2023-03-18T02:15:55;100687.59;;;0.28;77.79
9523;BME280;63165;43.016;25.784;2023-03-18T02:18:29;100718.97;;;0.66;77.93
9523;BME280;63165;43.016;25.784;2023-03-18T02:21:16;100701.31;;;0.52;77.74
9523;BME280;63165;43.016;25.784;2023-03-18T02:23:53;100683.56;;;0.34;77.95
9523;BME280;63165;43.016;25.784;2023-03-18T02:26:27;100701.13;;;0.46;77.64
9523;BME280;63165;43.016;25.784;2023-03-18T02:28:59;100756.34;;;0.54;77.70
9523;BME280;63165;43.016;25.784;2023-03-18T02:31:30;100724.47;;;0.51;77.83
9523;BME280;63165;43.016;25.784;2023-03-18T02:33:58;100713.59;;;0.35;77.66
9523;BME280;63165;43.016;25.784;2023-03-18T02:36:28;100722.38;;;0.41;77.97
9523;BME280;63165;43.016;25.784;2023-03-18T02:38:56;100709.25;;;0.33;78.23
9523;BME280;63165;43.016;25.784;2023-03-18T02:41:27;100726.72;;;0.42;78.08
9523;BME280;63165;43.016;25.784;2023-03-18T02:43:58;100642.38;;;-0.38;77.94
9523;BME280;63165;43.016;25.784;2023-03-18T02:46:32;100662.78;;;0.04;77.62
9523;BME280;63165;43.016;25.784;2023-03-18T02:49:04;100729.28;;;0.42;77.53
9523;BME280;63165;43.016;25.784;2023-03-18T02:51:33;100728.41;;;0.17;77.25
9523;BME280;63165;43.016;25.784;2023-03-18T02:54:04;100725.34;;;0.27;77.69
9523;BME280;63165;43.016;25.784;2023-03-18T02:56:32;100693.78;;;0.09;77.94
9523;BME280;63165;43.016;25.784;2023-03-18T02:59:01;100697.03;;;0.03;77.69
9523;BME280;63165;43.016;25.784;2023-03-18T03:01:30;100729.16;;;0.14;77.76
9523;BME280;63165;43.016;25.784;2023-03-18T03:03:58;100669.69;;;-0.17;77.54
9523;BME280;63165;43.016;25.784;2023-03-18T03:06:26;100728.94;;;0.08;77.83
9523;BME280;63165;43.016;25.784;2023-03-18T03:08:53;100694.81;;;-0.10;77.87
9523;BME280;63165;43.016;25.784;2023-03-18T03:11:22;100716.56;;;-0.02;77.62
9523;BME280;63165;43.016;25.784;2023-03-18T03:13:49;100678.72;;;-0.29;78.15
9523;BME280;63165;43.016;25.784;2023-03-18T03:16:19;100714.94;;;0.00;77.95
9523;BME280;63165;43.016;25.784;2023-03-18T03:18:46;100680.75;;;-0.20;77.87
9523;BME280;63165;43.016;25.784;2023-03-18T03:21:14;100679.63;;;-0.27;78.09
9523;BME280;63165;43.016;25.784;2023-03-18T03:23:42;100621.13;;;-0.56;78.62
9523;BME280;63165;43.016;25.784;2023-03-18T03:26:09;100703.69;;;-0.02;78.10
9523;BME280;63165;43.016;25.784;2023-03-18T03:28:36;100721.41;;;-0.10;78.21
9523;BME280;63165;43.016;25.784;2023-03-18T03:31:05;100703.66;;;-0.04;78.09
9523;BME280;63165;43.016;25.784;2023-03-18T03:33:36;100735.19;;;-0.09;77.64
9523;BME280;63165;43.016;25.784;2023-03-18T03:36:06;100701.41;;;-0.18;77.92
9523;BME280;63165;43.016;25.784;2023-03-18T03:38:34;100686.78;;;-0.20;77.79
9523;BME280;63165;43.016;25.784;2023-03-18T03:41:01;100686.50;;;-0.27;78.25
9523;BME280;63165;43.016;25.784;2023-03-18T03:43:30;100691.78;;;-0.23;78.60
9523;BME280;63165;43.016;25.784;2023-03-18T03:45:57;100698.06;;;-0.16;78.53
9523;BME280;63165;43.016;25.784;2023-03-18T03:48:24;100676.09;;;-0.53;79.18
9523;BME280;63165;43.016;25.784;2023-03-18T03:50:53;100650.72;;;-0.44;79.12
9523;BME280;63165;43.016;25.784;2023-03-18T03:53:24;100697.00;;;-0.21;79.59
9523;BME280;63165;43.016;25.784;2023-03-18T03:55:51;100670.84;;;-0.33;79.72
9523;BME280;63165;43.016;25.784;2023-03-18T03:58:19;100644.13;;;-0.37;79.63
9523;BME280;63165;43.016;25.784;2023-03-18T04:00:47;100694.31;;;-0.02;80.24
9523;BME280;63165;43.016;25.784;2023-03-18T04:03:14;100680.31;;;-0.08;79.92
9523;BME280;63165;43.016;25.784;2023-03-18T04:05:41;100689.97;;;-0.03;80.05
9523;BME280;63165;43.016;25.784;2023-03-18T04:08:10;100695.44;;;0.07;80.27
9523;BME280;63165;43.016;25.784;2023-03-18T04:10:37;100611.91;;;-0.51;80.34
9523;BME280;63165;43.016;25.784;2023-03-18T04:13:05;100745.06;;;0.27;80.56
9523;BME280;63165;43.016;25.784;2023-03-18T04:15:33;100685.38;;;0.13;80.81
9523;BME280;63165;43.016;25.784;2023-03-18T04:18:00;100675.53;;;0.01;80.94
9523;BME280;63165;43.016;25.784;2023-03-18T04:20:32;100703.03;;;0.28;80.98
9523;BME280;63165;43.016;25.784;2023-03-18T04:23:00;100670.09;;;0.17;80.62
9523;BME280;63165;43.016;25.784;2023-03-18T04:25:29;100700.91;;;0.40;81.53
9523;BME280;63165;43.016;25.784;2023-03-18T04:27:58;100739.31;;;0.58;81.06
9523;BME280;63165;43.016;25.784;2023-03-18T04:30:25;100725.66;;;0.61;81.07
9523;BME280;63165;43.016;25.784;2023-03-18T04:32:53;100684.53;;;0.38;81.24
9523;BME280;63165;43.016;25.784;2023-03-18T04:35:21;100709.03;;;0.52;81.52
9523;BME280;63165;43.016;25.784;2023-03-18T04:37:49;100730.09;;;0.65;81.10
9523;BME280;63165;43.016;25.784;2023-03-18T04:40:16;100695.91;;;0.45;80.63
9523;BME280;63165;43.016;25.784;2023-03-18T04:42:46;100721.16;;;0.55;80.71
9523;BME280;63165;43.016;25.784;2023-03-18T04:45:14;100685.47;;;0.40;80.81
9523;BME280;63165;43.016;25.784;2023-03-18T04:47:43;100733.75;;;0.71;80.63
9523;BME280;63165;43.016;25.784;2023-03-18T04:50:11;100730.41;;;0.74;80.49
9523;BME280;63165;43.016;25.784;2023-03-18T04:52:40;100703.34;;;0.61;80.46
9523;BME280;63165;43.016;25.784;2023-03-18T04:55:09;100722.25;;;0.62;80.81
9523;BME280;63165;43.016;25.784;2023-03-18T04:57:38;100742.50;;;0.76;80.85
9523;BME280;63165;43.016;25.784;2023-03-18T05:00:12;100685.94;;;0.54;80.42
9523;BME280;63165;43.016;25.784;2023-03-18T05:02:42;100722.63;;;0.72;80.29
9523;BME280;63165;43.016;25.784;2023-03-18T05:05:10;100721.56;;;0.67;80.59
9523;BME280;63165;43.016;25.784;2023-03-18T05:07:37;100714.88;;;0.72;80.43
9523;BME280;63165;43.016;25.784;2023-03-18T05:10:05;100717.63;;;0.77;80.77
9523;BME280;63165;43.016;25.784;2023-03-18T05:12:33;100720.09;;;0.74;80.61
9523;BME280;63165;43.016;25.784;2023-03-18T05:15:01;100652.22;;;0.46;80.96
9523;BME280;63165;43.016;25.784;2023-03-18T05:17:30;100758.94;;;1.06;81.57
9523;BME280;63165;43.016;25.784;2023-03-18T05:19:57;100754.88;;;1.12;81.66
9523;BME280;63165;43.016;25.784;2023-03-18T05:22:24;100767.97;;;1.19;81.63
9523;BME280;63165;43.016;25.784;2023-03-18T05:24:52;100733.28;;;1.09;82.26
9523;BME280;63165;43.016;25.784;2023-03-18T05:27:19;100655.94;;;0.54;82.08
9523;BME280;63165;43.016;25.784;2023-03-18T05:29:47;100751.19;;;1.31;82.04
9523;BME280;63165;43.016;25.784;2023-03-18T05:32:14;100769.50;;;1.39;82.34
9523;BME280;63165;43.016;25.784;2023-03-18T05:34:44;100766.22;;;1.45;82.42
9523;BME280;63165;43.016;25.784;2023-03-18T05:37:12;100680.72;;;1.04;82.37
9523;BME280;63165;43.016;25.784;2023-03-18T05:39:41;100711.44;;;0.98;82.68
9523;BME280;63165;43.016;25.784;2023-03-18T05:42:10;100748.81;;;1.38;82.51
9523;BME280;63165;43.016;25.784;2023-03-18T05:44:37;100763.09;;;1.55;82.26
9523;BME280;63165;43.016;25.784;2023-03-18T05:47:05;100740.38;;;1.43;81.89
9523;BME280;63165;43.016;25.784;2023-03-18T05:49:32;100807.97;;;1.60;81.52
9523;BME280;63165;43.016;25.784;2023-03-18T05:52:01;100709.00;;;1.02;82.02
9523;BME280;63165;43.016;25.784;2023-03-18T05:54:29;100733.03;;;1.28;82.12
9523;BME280;63165;43.016;25.784;2023-03-18T05:56:56;100790.09;;;1.65;82.49
9523;BME280;63165;43.016;25.784;2023-03-18T05:59:24;100788.56;;;1.71;82.34
9523;BME280;63165;43.016;25.784;2023-03-18T06:01:51;100787.00;;;1.77;82.54
9523;BME280;63165;43.016;25.784;2023-03-18T06:04:19;100765.44;;;1.74;82.26
9523;BME280;63165;43.016;25.784;2023-03-18T06:06:55;100724.28;;;1.50;82.17
9523;BME280;63165;43.016;25.784;2023-03-18T06:09:36;100702.50;;;1.41;82.62
9523;BME280;63165;43.016;25.784;2023-03-18T06:12:08;100786.91;;;2.02;82.29
9523;BME280;63165;43.016;25.784;2023-03-18T06:15:00;100684.59;;;1.45;81.54
9523;BME280;63165;43.016;25.784;2023-03-18T06:17:28;100690.06;;;1.56;81.27
9523;BME280;63165;43.016;25.784;2023-03-18T06:19:56;100767.94;;;2.00;81.44
9523;BME280;63165;43.016;25.784;2023-03-18T06:22:27;100794.25;;;2.19;81.24
9523;BME280;63165;43.016;25.784;2023-03-18T06:25:04;100793.56;;;2.24;81.21
9523;BME280;63165;43.016;25.784;2023-03-18T06:27:37;100776.94;;;2.14;81.26
9523;BME280;63165;43.016;25.784;2023-03-18T06:30:06;100810.28;;;2.37;81.12
9523;BME280;63165;43.016;25.784;2023-03-18T06:32:41;100797.53;;;2.42;82.18
9523;BME280;63165;43.016;25.784;2023-03-18T06:35:33;100719.28;;;1.84;83.14
9523;BME280;63165;43.016;25.784;2023-03-18T06:38:26;100765.88;;;2.49;82.96
9523;BME280;63165;43.016;25.784;2023-03-18T06:41:01;100734.50;;;2.35;83.38
9523;BME280;63165;43.016;25.784;2023-03-18T06:43:31;100760.91;;;2.57;83.11
9523;BME280;63165;43.016;25.784;2023-03-18T06:45:59;100783.50;;;2.64;83.31
9523;BME280;63165;43.016;25.784;2023-03-18T06:48:27;100663.94;;;2.04;83.65
9523;BME280;63165;43.016;25.784;2023-03-18T06:50:59;100796.88;;;2.81;83.56
9523;BME280;63165;43.016;25.784;2023-03-18T06:53:27;100814.50;;;2.96;83.95
9523;BME280;63165;43.016;25.784;2023-03-18T07:02:39;100761.63;;;2.83;83.49
9523;BME280;63165;43.016;25.784;2023-03-18T07:05:12;100766.84;;;2.84;83.58
9523;BME280;63165;43.016;25.784;2023-03-18T07:07:49;100815.97;;;3.19;83.78
9523;BME280;63165;43.016;25.784;2023-03-18T07:10:25;100743.44;;;2.80;83.92
9523;BME280;63165;43.016;25.784;2023-03-18T07:13:08;100792.94;;;2.95;83.61
9523;BME280;63165;43.016;25.784;2023-03-18T07:15:38;100832.59;;;3.29;84.47
9523;BME280;63165;43.016;25.784;2023-03-18T07:18:07;100826.69;;;3.35;84.84
9523;BME280;63165;43.016;25.784;2023-03-18T07:20:35;100777.84;;;3.12;85.43
9523;BME280;63165;43.016;25.784;2023-03-18T07:23:03;100777.09;;;3.15;85.49
9523;BME280;63165;43.016;25.784;2023-03-18T07:25:30;100826.06;;;3.43;86.00
9523;BME280;63165;43.016;25.784;2023-03-18T07:27:57;100792.94;;;3.28;86.48
9523;BME280;63165;43.016;25.784;2023-03-18T07:30:26;100825.44;;;3.52;86.57
9523;BME280;63165;43.016;25.784;2023-03-18T07:32:54;100819.47;;;3.56;86.72
9523;BME280;63165;43.016;25.784;2023-03-18T07:35:23;100821.22;;;3.57;86.09
9523;BME280;63165;43.016;25.784;2023-03-18T07:37:50;100848.44;;;3.78;86.40
9523;BME280;63165;43.016;25.784;2023-03-18T07:40:18;100788.47;;;3.58;86.35
9523;BME280;63165;43.016;25.784;2023-03-18T07:42:45;100792.78;;;3.59;86.07
9523;BME280;63165;43.016;25.784;2023-03-18T07:45:13;100794.63;;;3.63;85.62
9523;BME280;63165;43.016;25.784;2023-03-18T07:47:40;100842.28;;;3.71;86.02
9523;BME280;63165;43.016;25.784;2023-03-18T07:50:08;100833.31;;;3.93;85.70
9523;BME280;63165;43.016;25.784;2023-03-18T07:52:38;100842.06;;;4.00;86.38
9523;BME280;63165;43.016;25.784;2023-03-18T07:55:05;100794.00;;;3.73;86.08
9523;BME280;63165;43.016;25.784;2023-03-18T07:57:33;100826.63;;;4.03;86.47
9523;BME280;63165;43.016;25.784;2023-03-18T08:00:01;100842.22;;;4.07;86.34
9523;BME280;63165;43.016;25.784;2023-03-18T08:02:29;100826.47;;;3.97;86.23
9523;BME280;63165;43.016;25.784;2023-03-18T08:04:56;100797.00;;;3.92;85.99
9523;BME280;63165;43.016;25.784;2023-03-18T08:07:24;100858.19;;;4.26;86.09
9523;BME280;63165;43.016;25.784;2023-03-18T08:09:53;100841.00;;;4.30;86.08
9523;BME280;63165;43.016;25.784;2023-03-18T08:12:20;100837.63;;;4.32;86.17
9523;BME280;63165;43.016;25.784;2023-03-18T08:14:48;100848.16;;;4.41;86.40
9523;BME280;63165;43.016;25.784;2023-03-18T08:17:15;100854.94;;;4.35;86.25
9523;BME280;63165;43.016;25.784;2023-03-18T08:19:42;100771.22;;;3.96;85.77
9523;BME280;63165;43.016;25.784;2023-03-18T08:22:09;100812.38;;;4.23;86.10
9523;BME280;63165;43.016;25.784;2023-03-18T08:24:37;100867.53;;;4.59;86.05
9523;BME280;63165;43.016;25.784;2023-03-18T08:27:06;100830.22;;;4.51;86.21
9523;BME280;63165;43.016;25.784;2023-03-18T08:29:34;100866.91;;;4.71;86.27
9523;BME280;63165;43.016;25.784;2023-03-18T08:32:01;100866.16;;;4.76;85.81
9523;BME280;63165;43.016;25.784;2023-03-18T08:34:28;100849.50;;;4.65;85.31
9523;BME280;63165;43.016;25.784;2023-03-18T08:36:57;100849.75;;;4.76;85.19
9523;BME280;63165;43.016;25.784;2023-03-18T08:39:24;100858.63;;;4.89;85.35
9523;BME280;63165;43.016;25.784;2023-03-18T08:41:51;100859.63;;;4.95;85.31
9523;BME280;63165;43.016;25.784;2023-03-18T08:44:20;100864.06;;;5.02;85.04
9523;BME280;63165;43.016;25.784;2023-03-18T08:46:47;100780.47;;;4.69;85.60
9523;BME280;63165;43.016;25.784;2023-03-18T08:49:15;100825.13;;;4.99;85.81
9523;BME280;63165;43.016;25.784;2023-03-18T08:51:43;100848.00;;;5.20;85.74
9523;BME280;63165;43.016;25.784;2023-03-18T08:54:11;100857.84;;;5.40;85.70
9523;BME280;63165;43.016;25.784;2023-03-18T08:56:39;100783.81;;;5.10;86.32
9523;BME280;63165;43.016;25.784;2023-03-18T08:59:07;100856.56;;;5.65;86.46
9523;BME280;63165;43.016;25.784;2023-03-18T09:01:36;100851.56;;;5.79;85.96
9523;BME280;63165;43.016;25.784;2023-03-18T09:04:04;100772.44;;;5.54;85.50
9523;BME280;63165;43.016;25.784;2023-03-18T09:06:34;100851.13;;;6.05;85.32
9523;BME280;63165;43.016;25.784;2023-03-18T09:09:01;100835.69;;;6.14;84.82
9523;BME280;63165;43.016;25.784;2023-03-18T09:11:28;100786.19;;;6.05;84.24
9523;BME280;63165;43.016;25.784;2023-03-18T09:13:56;100814.44;;;6.46;83.35
9523;BME280;63165;43.016;25.784;2023-03-18T09:16:23;100802.34;;;6.51;81.99
9523;BME280;63165;43.016;25.784;2023-03-18T09:18:51;100806.84;;;6.63;81.04
9523;BME280;63165;43.016;25.784;2023-03-18T09:21:19;100830.66;;;6.98;80.19
9523;BME280;63165;43.016;25.784;2023-03-18T09:23:47;100827.25;;;7.05;79.82
9523;BME280;63165;43.016;25.784;2023-03-18T09:26:15;100756.78;;;6.84;78.41
9523;BME280;63165;43.016;25.784;2023-03-18T09:28:42;100795.31;;;7.23;77.58
9523;BME280;63165;43.016;25.784;2023-03-18T09:31:09;100830.22;;;7.45;76.34
9523;BME280;63165;43.016;25.784;2023-03-18T09:33:37;100752.75;;;7.19;75.02
9523;BME280;63165;43.016;25.784;2023-03-18T09:36:09;100805.19;;;7.63;72.78
9523;BME280;63165;43.016;25.784;2023-03-18T09:38:36;100797.34;;;7.58;70.59
9523;BME280;63165;43.016;25.784;2023-03-18T09:41:06;100821.00;;;7.90;69.46
9523;BME280;63165;43.016;25.784;2023-03-18T09:43:58;100765.31;;;7.73;68.54
9523;BME280;63165;43.016;25.784;2023-03-18T09:46:36;100823.75;;;8.12;68.21
9523;BME280;63165;43.016;25.784;2023-03-18T09:52:05;100764.66;;;8.11;67.14
9523;BME280;63165;43.016;25.784;2023-03-18T09:54:38;100752.56;;;8.28;66.65
9523;BME280;63165;43.016;25.784;2023-03-18T09:57:13;100802.38;;;8.87;66.22
9523;BME280;63165;43.016;25.784;2023-03-18T09:59:44;100832.88;;;9.09;65.02
9523;BME280;63165;43.016;25.784;2023-03-18T10:02:19;100808.50;;;9.23;63.93
9523;BME280;63165;43.016;25.784;2023-03-18T10:04:52;100801.53;;;9.23;62.43
9523;BME280;63165;43.016;25.784;2023-03-18T10:07:24;100800.69;;;9.37;62.35
9523;BME280;63165;43.016;25.784;2023-03-18T10:09:54;100784.16;;;9.41;61.24
9523;BME280;63165;43.016;25.784;2023-03-18T10:12:29;100778.06;;;9.42;60.09
9523;BME280;63165;43.016;25.784;2023-03-18T10:15:09;100795.44;;;9.63;59.96
9523;BME280;63165;43.016;25.784;2023-03-18T10:17:42;100779.78;;;9.46;59.57
9523;BME280;63165;43.016;25.784;2023-03-18T10:20:17;100808.47;;;9.87;58.18
9523;BME280;63165;43.016;25.784;2023-03-18T10:22:55;100768.44;;;9.79;56.42
9523;BME280;63165;43.016;25.784;2023-03-18T10:25:34;100802.38;;;10.01;56.95
9523;BME280;63165;43.016;25.784;2023-03-18T10:31:27;100770.94;;;10.11;56.05
9523;BME280;63165;43.016;25.784;2023-03-18T10:33:59;100750.09;;;9.99;55.16
9523;BME280;63165;43.016;25.784;2023-03-18T10:36:33;100757.06;;;9.97;52.58
9523;BME280;63165;43.016;25.784;2023-03-18T10:39:10;100805.81;;;10.15;50.48
9523;BME280;63165;43.016;25.784;2023-03-18T10:41:39;100732.69;;;9.81;51.10
9523;BME280;63165;43.016;25.784;2023-03-18T10:44:16;100791.88;;;10.13;50.51
9523;BME280;63165;43.016;25.784;2023-03-18T10:46:45;100774.44;;;10.15;50.45
9523;BME280;63165;43.016;25.784;2023-03-18T10:49:15;100781.41;;;10.13;49.50
9523;BME280;63165;43.016;25.784;2023-03-18T10:51:48;100783.13;;;10.20;50.07
9523;BME280;63165;43.016;25.784;2023-03-18T10:54:18;100778.72;;;10.38;50.18
9523;BME280;63165;43.016;25.784;2023-03-18T10:56:47;100727.34;;;10.20;50.62
9523;BME280;63165;43.016;25.784;2023-03-18T10:59:17;100738.56;;;10.53;50.25
9523;BME280;63165;43.016;25.784;2023-03-18T11:01:49;100682.88;;;10.31;49.92
9523;BME280;63165;43.016;25.784;2023-03-18T11:04:18;100712.31;;;10.66;49.72
9523;BME280;63165;43.016;25.784;2023-03-18T11:06:50;100682.63;;;10.74;49.39
9523;BME280;63165;43.016;25.784;2023-03-18T11:09:28;100755.53;;;11.23;48.77
9523;BME280;63165;43.016;25.784;2023-03-18T11:11:58;100681.63;;;10.88;48.26
9523;BME280;63165;43.016;25.784;2023-03-18T11:14:30;100704.09;;;11.13;48.14
9523;BME280;63165;43.016;25.784;2023-03-18T11:16:59;100716.97;;;11.39;48.50
9523;BME280;63165;43.016;25.784;2023-03-18T11:19:31;100742.97;;;11.63;48.24
9523;BME280;63165;43.016;25.784;2023-03-18T11:22:00;100738.50;;;11.72;47.59
9523;BME280;63165;43.016;25.784;2023-03-18T11:24:30;100669.91;;;11.30;47.10
9523;BME280;63165;43.016;25.784;2023-03-18T11:27:32;100708.81;;;11.71;46.59
9523;BME280;63165;43.016;25.784;2023-03-18T11:30:03;100677.38;;;11.66;46.76
9523;BME280;63165;43.016;25.784;2023-03-18T11:32:33;100619.06;;;11.48;46.79
9523;BME280;63165;43.016;25.784;2023-03-18T11:35:04;100724.78;;;12.27;46.16
9523;BME280;63165;43.016;25.784;2023-03-18T11:37:33;100715.16;;;12.28;45.36
9523;BME280;63165;43.016;25.784;2023-03-18T11:40:19;100643.19;;;11.76;44.66
9523;BME280;63165;43.016;25.784;2023-03-18T11:42:53;100685.81;;;11.98;45.43
9523;BME280;63165;43.016;25.784;2023-03-18T11:45:38;100697.78;;;12.19;45.12
9523;BME280;63165;43.016;25.784;2023-03-18T11:48:13;100702.13;;;12.21;46.02
9523;BME280;63165;43.016;25.784;2023-03-18T11:50:58;100649.25;;;11.82;46.11
9523;BME280;63165;43.016;25.784;2023-03-18T11:53:36;100668.81;;;12.27;45.97
9523;BME280;63165;43.016;25.784;2023-03-18T11:56:12;100693.94;;;12.46;46.07
9523;BME280;63165;43.016;25.784;2023-03-18T11:59:07;100693.00;;;12.49;45.99
9523;BME280;63165;43.016;25.784;2023-03-18T12:01:42;100679.81;;;12.53;45.62
9523;BME280;63165;43.016;25.784;2023-03-18T12:04:24;100639.63;;;12.51;44.91
9523;BME280;63165;43.016;25.784;2023-03-18T12:07:09;100681.09;;;12.85;45.39
9523;BME280;63165;43.016;25.784;2023-03-18T12:09:48;100660.09;;;12.84;45.94
9523;BME280;63165;43.016;25.784;2023-03-18T12:12:33;100657.22;;;12.99;44.76
9523;BME280;63165;43.016;25.784;2023-03-18T12:15:13;100633.84;;;12.84;44.96
9523;BME280;63165;43.016;25.784;2023-03-18T12:17:52;100661.16;;;13.25;45.33
9523;BME280;63165;43.016;25.784;2023-03-18T12:20:37;100638.06;;;12.92;44.57
9523;BME280;63165;43.016;25.784;2023-03-18T12:23:18;100663.69;;;13.31;45.19
9523;BME280;63165;43.016;25.784;2023-03-18T12:25:56;100649.03;;;13.16;44.43
9523;BME280;63165;43.016;25.784;2023-03-18T12:28:33;100657.63;;;13.26;43.80
9523;BME280;63165;43.016;25.784;2023-03-18T12:31:27;100663.56;;;13.38;43.24
9523;BME280;63165;43.016;25.784;2023-03-18T12:34:18;100631.28;;;13.32;43.67
9523;BME280;63165;43.016;25.784;2023-03-18T12:36:58;100604.34;;;13.19;43.24
9523;BME280;63165;43.016;25.784;2023-03-18T12:39:42;100666.00;;;13.49;42.75
9523;BME280;63165;43.016;25.784;2023-03-18T12:42:17;100673.72;;;13.58;43.32
9523;BME280;63165;43.016;25.784;2023-03-18T12:44:56;100630.84;;;13.55;43.21
9523;BME280;63165;43.016;25.784;2023-03-18T12:47:29;100537.50;;;12.87;41.95
9523;BME280;63165;43.016;25.784;2023-03-18T12:50:01;100562.50;;;13.07;42.45
9523;BME280;63165;43.016;25.784;2023-03-18T12:52:35;100570.78;;;12.85;41.94
9523;BME280;63165;43.016;25.784;2023-03-18T12:55:09;100580.06;;;13.05;42.46
9523;BME280;63165;43.016;25.784;2023-03-18T12:57:44;100579.13;;;13.07;42.11
9523;BME280;63165;43.016;25.784;2023-03-18T13:00:20;100634.25;;;13.60;42.29
9523;BME280;63165;43.016;25.784;2023-03-18T13:02:57;100583.31;;;13.19;42.09
9523;BME280;63165;43.016;25.784;2023-03-18T13:05:45;100638.16;;;13.84;41.97
9523;BME280;63165;43.016;25.784;2023-03-18T13:08:42;100628.44;;;13.88;42.07
9523;BME280;63165;43.016;25.784;2023-03-18T13:11:18;100613.72;;;13.77;41.46
9523;BME280;63165;43.016;25.784;2023-03-18T13:13:56;100617.69;;;13.55;40.64
9523;BME280;63165;43.016;25.784;2023-03-18T13:16:26;100631.69;;;13.55;40.85
9523;BME280;63165;43.016;25.784;2023-03-18T13:19:07;100580.25;;;13.42;41.90
9523;BME280;63165;43.016;25.784;2023-03-18T13:21:42;100579.06;;;13.58;41.14
9523;BME280;63165;43.016;25.784;2023-03-18T13:24:24;100608.50;;;13.76;40.79
9523;BME280;63165;43.016;25.784;2023-03-18T13:29:53;100595.47;;;13.70;40.15
9523;BME280;63165;43.016;25.784;2023-03-18T13:32:36;100609.22;;;13.84;40.11
9523;BME280;63165;43.016;25.784;2023-03-18T13:38:14;100591.03;;;13.73;39.90